Camden, West Virginia
Current Conditions -  °F | °C
As of 4:55 AM on Friday 31 Oct 2014 (Local Time) from KW22 Reporting Station
Overcast Overcast  
Wind Chill: 36°   Ceiling: 3800
Heat Index: 36°   Visibility: 10mi
Dew Point: 36°   Wind: 0mph
Humidity: 100%   Direction: NA
Pressure: 29.98"   Gusts: NA
Location:  39.05°N, 80.57°W
Report Text: KW22 310855Z AUTO 00000KT 10SM OVC038 02/02 A2998 RMK AO2
Loading
Personal Weather Stations






























Interactive Weather Map
Tropical Storm Tracking
New forecast layout! Learn more

10-Day Weather Forecast

Advertisements
Track Severe Weather on mobile